createdAt,value
2018-07-13T00:07:54.921Z,19.10
2018-07-13T00:12:57.978Z,19.10
2018-07-13T00:18:00.986Z,19.10
2018-07-13T00:23:04.024Z,19.00
2018-07-13T00:28:07.085Z,19.00
2018-07-13T00:33:10.160Z,19.00
2018-07-13T00:38:13.231Z,19.00
2018-07-13T00:43:16.305Z,18.90
2018-07-13T00:48:19.325Z,18.90
2018-07-13T00:53:22.352Z,18.90
2018-07-13T00:58:25.358Z,18.80
2018-07-13T01:03:28.418Z,18.80
2018-07-13T01:08:31.642Z,18.70
2018-07-13T01:13:34.726Z,18.70
2018-07-13T01:18:37.834Z,18.70
2018-07-13T01:23:40.857Z,18.60
2018-07-13T01:28:43.861Z,18.60
2018-07-13T01:33:46.888Z,18.50
2018-07-13T01:38:49.905Z,18.50
2018-07-13T01:43:52.982Z,18.40
2018-07-13T01:48:56.017Z,18.40
2018-07-13T01:53:59.065Z,18.30
2018-07-13T01:59:02.135Z,18.20
2018-07-13T02:04:05.189Z,18.10
2018-07-13T02:09:09.112Z,18.10
2018-07-13T02:14:12.136Z,18.20
2018-07-13T02:19:15.188Z,18.00
2018-07-13T02:24:18.238Z,18.00
2018-07-13T02:29:21.250Z,18.10
2018-07-13T02:34:24.311Z,18.00
2018-07-13T02:39:27.373Z,17.90
2018-07-13T02:44:30.609Z,17.90
2018-07-13T02:49:33.645Z,17.80
2018-07-13T02:54:36.736Z,17.80
2018-07-13T02:59:39.842Z,17.80
2018-07-13T03:04:42.904Z,17.80
2018-07-13T03:09:45.971Z,17.60
2018-07-13T03:14:48.994Z,17.40
2018-07-13T03:19:52.006Z,17.40
2018-07-13T03:24:55.150Z,17.40
2018-07-13T03:29:58.255Z,17.40
2018-07-13T03:35:01.363Z,17.40
2018-07-13T03:40:04.569Z,17.30
2018-07-13T03:45:07.642Z,17.30
2018-07-13T03:50:10.705Z,17.30
2018-07-13T03:55:13.718Z,17.30
2018-07-13T04:00:16.766Z,17.20
2018-07-13T04:05:19.776Z,17.10
2018-07-13T04:10:22.798Z,17.10
2018-07-13T04:15:25.834Z,17.10
2018-07-13T04:20:28.862Z,17.10
2018-07-13T04:25:31.871Z,17.20
2018-07-13T04:30:34.898Z,17.20
2018-07-13T04:35:37.921Z,17.30
2018-07-13T04:40:40.980Z,17.30
2018-07-13T04:45:44.020Z,17.30
2018-07-13T04:50:47.106Z,17.40
2018-07-13T04:55:50.129Z,17.50
2018-07-13T05:00:53.186Z,17.70
2018-07-13T05:05:56.203Z,17.60
2018-07-13T05:10:59.238Z,17.80
2018-07-13T05:16:02.282Z,18.00
2018-07-13T05:21:05.366Z,18.10
2018-07-13T05:26:08.640Z,18.30
2018-07-13T05:31:11.661Z,18.30
2018-07-13T05:36:14.691Z,18.30
2018-07-13T05:46:20.706Z,18.40
2018-07-13T05:51:23.751Z,18.40
2018-07-13T05:56:26.924Z,18.40
2018-07-13T06:01:29.977Z,18.60
2018-07-13T06:06:33.047Z,18.70
2018-07-13T06:11:36.110Z,18.70
2018-07-13T06:16:39.172Z,18.60
2018-07-13T06:21:42.200Z,18.50
2018-07-13T06:26:45.211Z,18.70
2018-07-13T06:31:48.262Z,18.50
2018-07-13T06:36:51.308Z,18.50
2018-07-13T06:41:54.434Z,18.60
2018-07-13T06:46:57.484Z,18.70
2018-07-13T06:52:00.519Z,19.00
2018-07-13T06:57:03.545Z,19.00
2018-07-13T07:02:06.758Z,18.90
2018-07-13T07:12:53.376Z,19.40
2018-07-13T07:17:56.483Z,19.60
2018-07-13T07:22:59.541Z,19.30
2018-07-13T07:28:02.562Z,19.30
2018-07-13T07:33:06.523Z,19.60
2018-07-13T07:38:09.819Z,19.90
2018-07-13T07:43:13.189Z,19.80
2018-07-13T07:48:16.709Z,19.80
2018-07-13T07:53:19.978Z,20.00
2018-07-13T07:58:23.013Z,20.10
2018-07-13T08:03:26.068Z,20.20
2018-07-13T08:08:29.172Z,20.10
2018-07-13T08:13:32.369Z,20.10
2018-07-13T08:18:35.505Z,20.00
2018-07-13T08:23:38.584Z,19.80
2018-07-13T08:28:42.298Z,19.70
2018-07-13T08:33:45.444Z,19.70
2018-07-13T08:38:48.492Z,19.70
2018-07-13T08:43:51.515Z,19.70
2018-07-13T08:48:54.528Z,19.60
2018-07-13T08:53:57.597Z,19.70
2018-07-13T08:59:00.625Z,19.90
2018-07-13T09:04:03.649Z,19.90
2018-07-13T09:09:11.556Z,19.80
2018-07-13T09:14:14.751Z,19.80
2018-07-13T09:19:17.758Z,19.80
2018-07-13T09:24:20.823Z,20.10
2018-07-13T09:29:23.832Z,20.30
2018-07-13T09:34:26.856Z,20.20
2018-07-13T09:39:29.907Z,20.20
2018-07-13T09:44:32.913Z,20.30
2018-07-13T09:49:35.944Z,20.20
2018-07-13T09:54:38.957Z,20.20
2018-07-13T09:59:41.945Z,20.20
2018-07-13T10:04:45.040Z,20.30
2018-07-13T10:09:48.182Z,20.30
2018-07-13T10:14:51.214Z,20.60
2018-07-13T10:19:54.254Z,20.90
2018-07-13T10:25:00.027Z,21.20
2018-07-13T10:30:03.976Z,21.10
2018-07-13T10:35:07.702Z,21.10
2018-07-13T10:40:10.741Z,21.50
2018-07-13T10:45:13.750Z,21.60
2018-07-13T10:50:16.786Z,21.70
2018-07-13T10:55:19.814Z,21.70
2018-07-13T11:00:22.834Z,21.80
2018-07-13T11:05:25.838Z,22.00
2018-07-13T11:10:28.950Z,22.00
2018-07-13T11:15:31.976Z,22.20
2018-07-13T11:20:35.018Z,22.30
2018-07-13T11:25:38.051Z,22.60
2018-07-13T11:30:41.066Z,22.70
2018-07-13T11:35:44.084Z,22.80
2018-07-13T11:40:47.128Z,23.00
2018-07-13T11:45:50.190Z,23.20
2018-07-13T11:50:53.196Z,23.40
2018-07-13T11:55:56.204Z,23.80
2018-07-13T12:00:59.260Z,24.00
2018-07-13T12:06:02.291Z,24.50
2018-07-13T12:11:05.356Z,24.60
2018-07-13T12:16:08.411Z,24.80
2018-07-13T12:21:11.512Z,25.60
2018-07-13T12:26:14.568Z,25.80
2018-07-13T12:31:17.559Z,25.40
2018-07-13T12:36:20.563Z,25.40
2018-07-13T12:41:23.575Z,25.90
2018-07-13T12:46:26.596Z,26.30
2018-07-13T12:51:29.627Z,27.10
2018-07-13T12:56:32.608Z,26.70
2018-07-13T13:01:35.613Z,26.80
2018-07-13T13:06:38.639Z,27.70
2018-07-13T13:11:41.666Z,28.20
2018-07-13T13:16:44.742Z,28.30
2018-07-13T13:21:47.794Z,28.00
2018-07-13T13:26:50.869Z,28.10
2018-07-13T13:31:53.938Z,28.50
2018-07-13T13:36:56.992Z,28.70
2018-07-13T13:41:59.995Z,28.70
2018-07-13T13:47:03.010Z,29.10
2018-07-13T13:52:06.160Z,29.20
2018-07-13T13:57:09.177Z,29.40
2018-07-13T14:02:12.207Z,29.10
2018-07-13T14:07:15.209Z,29.00
2018-07-13T14:12:18.678Z,28.80
2018-07-13T14:17:22.113Z,29.10
2018-07-13T14:22:25.463Z,29.30
2018-07-13T14:27:28.458Z,29.40
2018-07-13T14:32:31.458Z,29.60
2018-07-13T14:37:34.689Z,30.00
2018-07-13T14:42:37.783Z,29.80
2018-07-13T14:47:41.393Z,29.90
2018-07-13T14:52:44.416Z,30.10
2018-07-13T14:57:47.424Z,29.90
2018-07-13T15:02:50.482Z,29.70
2018-07-13T15:07:53.727Z,29.70
2018-07-13T15:12:56.750Z,29.40
2018-07-13T15:17:59.753Z,29.30
2018-07-13T15:23:02.796Z,29.60
2018-07-13T15:28:05.797Z,29.90
2018-07-13T15:33:09.550Z,29.90
2018-07-13T15:38:12.660Z,29.50
2018-07-13T15:43:15.761Z,29.50
2018-07-13T15:48:18.815Z,29.90
2018-07-13T15:53:21.919Z,30.10
2018-07-13T15:58:25.595Z,30.30
2018-07-13T16:03:28.626Z,30.30
2018-07-13T16:08:31.614Z,30.20
2018-07-13T16:13:34.641Z,29.60
2018-07-13T16:18:37.682Z,29.20
2018-07-13T16:23:41.228Z,29.00
2018-07-13T16:28:44.303Z,28.10
2018-07-13T16:33:47.275Z,27.50
2018-07-13T16:38:50.296Z,27.00
2018-07-13T16:43:53.378Z,26.60
2018-07-13T16:48:56.382Z,26.30
2018-07-13T16:53:59.753Z,26.00
2018-07-13T16:59:02.786Z,25.90
2018-07-13T17:04:05.835Z,25.90
2018-07-13T17:09:09.234Z,25.90
2018-07-13T17:14:12.745Z,25.90
2018-07-13T17:19:16.264Z,25.80
2018-07-13T17:24:19.665Z,25.80
2018-07-13T17:29:22.927Z,25.80
2018-07-13T17:34:26.106Z,25.80
2018-07-13T17:39:29.127Z,25.70
2018-07-13T17:44:32.230Z,25.50
2018-07-13T17:49:35.838Z,25.30
2018-07-13T17:54:38.865Z,25.20
2018-07-13T17:59:41.945Z,25.10
2018-07-13T18:04:44.966Z,25.00
2018-07-13T18:09:47.966Z,25.10
2018-07-13T18:14:51.057Z,25.00
2018-07-13T18:19:54.067Z,24.80
2018-07-13T18:24:57.141Z,24.60
2018-07-13T18:30:00.197Z,24.60
2018-07-13T18:35:03.285Z,24.50
2018-07-13T18:40:06.374Z,24.40
2018-07-13T18:45:09.610Z,24.40
2018-07-13T18:50:12.651Z,24.30
2018-07-13T18:55:15.674Z,24.20
2018-07-13T19:00:18.752Z,24.00
2018-07-13T19:05:22.124Z,23.90
2018-07-13T19:10:25.129Z,23.90
2018-07-13T19:15:28.138Z,23.90
2018-07-13T19:20:31.271Z,23.60
2018-07-13T19:25:34.321Z,23.50
2018-07-13T19:30:37.482Z,23.30
2018-07-13T19:35:40.401Z,23.20
2018-07-13T19:40:43.443Z,23.10
2018-07-13T19:45:46.453Z,23.00
2018-07-13T19:50:49.542Z,22.90
2018-07-13T19:55:52.563Z,22.90
2018-07-13T20:00:55.586Z,23.00
2018-07-13T20:05:58.592Z,23.00
2018-07-13T20:16:04.554Z,22.80
2018-07-13T20:21:07.562Z,22.50
2018-07-13T20:26:10.577Z,22.40
2018-07-13T20:31:13.582Z,22.50
2018-07-13T20:36:16.611Z,22.60
2018-07-13T20:41:19.664Z,22.60
2018-07-13T20:46:22.670Z,22.60
2018-07-13T20:51:25.677Z,22.50
2018-07-13T20:56:28.706Z,22.50
2018-07-13T21:01:31.739Z,22.40
2018-07-13T21:06:34.806Z,22.40
2018-07-13T21:11:37.928Z,22.30
2018-07-13T21:16:40.956Z,22.30
2018-07-13T21:21:43.990Z,22.20
2018-07-13T21:26:47.116Z,21.90
2018-07-13T21:36:52.938Z,21.80
2018-07-13T21:46:58.806Z,21.80
2018-07-13T21:52:02.621Z,21.70
2018-07-13T21:57:05.626Z,21.60
2018-07-13T22:02:08.651Z,21.50
2018-07-13T22:07:11.643Z,21.40
2018-07-13T22:12:14.651Z,21.40
2018-07-13T22:17:17.654Z,21.30
2018-07-13T22:22:20.689Z,21.30
2018-07-13T22:27:23.696Z,21.20
2018-07-13T22:32:26.745Z,21.20
2018-07-13T22:37:29.767Z,21.00
2018-07-13T22:42:32.755Z,20.90
2018-07-13T22:47:35.764Z,20.70
2018-07-13T22:52:38.795Z,20.70
2018-07-13T22:57:41.909Z,20.60
2018-07-13T23:02:44.908Z,20.60
2018-07-13T23:07:47.944Z,20.40
2018-07-13T23:12:51.074Z,20.20
2018-07-13T23:17:54.092Z,20.10
2018-07-13T23:22:57.098Z,20.10
2018-07-13T23:28:00.118Z,20.10
2018-07-13T23:33:03.114Z,20.10
2018-07-13T23:38:06.118Z,19.90
2018-07-13T23:43:09.111Z,19.70
2018-07-13T23:48:12.113Z,19.70
2018-07-13T23:53:15.140Z,19.70
2018-07-13T23:58:18.155Z,19.70
